Time;durP1;ratioP1;P1;durP2;ratioP2;P2;SDS_P1;SDS_P2;PMS_P1;PMS_P2;Temp;Humidity;BMP_temperature;BMP_pressure;BME280_temperature;BME280_humidity;BME280_pressure;Samples;Min_cycle;Max_cycle;Signal;HPM_P1;HPM_P2
2023/04/25 00:00:52;;;;;;;;;;;22.20;54.20;;;;;;1583429;73;746;-67
2023/04/25 00:02:56;;;;;;;;;;;22.30;54.40;;;;;;1582250;73;1566;-68
2023/04/25 00:04:58;;;;;;;;;;;22.20;54.50;;;;;;1578394;73;1613;-67
2023/04/25 00:07:03;;;;;;;;;;;22.20;54.90;;;;;;1585818;73;737;-67
2023/04/25 00:09:07;;;;;;;;;;;22.10;55.10;;;;;;1588440;73;788;-67
2023/04/25 00:11:09;;;;;;;;;;;22.10;55.20;;;;;;1585415;73;783;-66
2023/04/25 00:13:11;;;;;;;;;;;22.10;55.20;;;;;;1588487;73;1118;-67
2023/04/25 00:15:13;;;;;;;;;;;22.00;55.00;;;;;;1589965;73;1905;-68
2023/04/25 00:17:15;;;;;;;;;;;22.10;55.00;;;;;;1594959;73;1545;-67
2023/04/25 00:19:16;;;;;;;;;;;22.10;54.80;;;;;;1589894;73;827;-65
2023/04/25 00:21:19;;;;;;;;;;;22.10;54.60;;;;;;1589595;73;745;-69
2023/04/25 00:23:21;;;;;;;;;;;22.10;54.60;;;;;;1590152;72;1095;-68
2023/04/25 00:25:23;;;;;;;;;;;22.10;54.50;;;;;;1581323;73;722;-66
2023/04/25 00:27:25;;;;;;;;;;;22.20;54.40;;;;;;1587677;73;740;-67
2023/04/25 00:29:27;;;;;;;;;;;22.20;54.40;;;;;;1580912;73;613;-67
2023/04/25 00:31:29;;;;;;;;;;;22.20;54.30;;;;;;1572441;73;1548;-67
2023/04/25 00:33:31;;;;;;;;;;;22.20;54.50;;;;;;1570472;73;734;-66
2023/04/25 00:35:33;;;;;;;;;;;22.10;54.60;;;;;;1588035;73;1923;-67
2023/04/25 00:37:35;;;;;;;;;;;22.20;54.70;;;;;;1586148;73;672;-68
2023/04/25 00:39:37;;;;;;;;;;;22.10;54.50;;;;;;1599110;73;728;-69
2023/04/25 00:41:38;;;;;;;;;;;22.20;54.40;;;;;;1597682;73;1137;-68
2023/04/25 00:43:40;;;;;;;;;;;22.20;54.30;;;;;;1579688;73;716;-68
2023/04/25 00:45:42;;;;;;;;;;;22.30;54.30;;;;;;1577646;73;1616;-69
2023/04/25 00:47:45;;;;;;;;;;;22.20;54.10;;;;;;1591510;73;711;-69
2023/04/25 00:49:46;;;;;;;;;;;22.20;54.20;;;;;;1582525;73;725;-67
2023/04/25 00:51:48;;;;;;;;;;;22.20;54.10;;;;;;1584759;73;1179;-68
2023/04/25 00:53:50;;;;;;;;;;;22.30;54.00;;;;;;1579022;73;744;-66
2023/04/25 00:55:52;;;;;;;;;;;22.30;53.90;;;;;;1578679;73;1937;-69
2023/04/25 00:57:54;;;;;;;;;;;22.30;53.90;;;;;;1582669;73;1450;-69
2023/04/25 00:59:56;;;;;;;;;;;22.20;53.70;;;;;;1584703;73;753;-69
2023/04/25 01:01:58;;;;;;;;;;;22.30;53.80;;;;;;1583007;73;1138;-67
2023/04/25 01:04:00;;;;;;;;;;;22.20;53.60;;;;;;1587721;73;728;-67
2023/04/25 01:06:02;;;;;;;;;;;22.20;53.60;;;;;;1599440;73;748;-65
2023/04/25 01:08:04;;;;;;;;;;;22.20;53.70;;;;;;1584955;73;750;-66
2023/04/25 01:10:07;;;;;;;;;;;22.20;53.70;;;;;;1601075;73;698;-66
2023/04/25 01:12:08;;;;;;;;;;;22.30;54.00;;;;;;1598748;72;1501;-66
2023/04/25 01:14:10;;;;;;;;;;;22.30;53.90;;;;;;1573440;73;706;-67
2023/04/25 01:16:12;;;;;;;;;;;22.30;53.80;;;;;;1573186;73;1930;-66
2023/04/25 01:18:14;;;;;;;;;;;22.30;53.70;;;;;;1584000;73;681;-67
2023/04/25 01:20:16;;;;;;;;;;;22.30;53.60;;;;;;1573777;73;718;-67
2023/04/25 01:22:18;;;;;;;;;;;22.30;53.60;;;;;;1590322;73;1139;-68
2023/04/25 01:24:20;;;;;;;;;;;22.40;53.50;;;;;;1589938;73;740;-69
2023/04/25 01:26:22;;;;;;;;;;;22.30;53.50;;;;;;1585221;73;1494;-65
2023/04/25 01:28:24;;;;;;;;;;;22.40;53.50;;;;;;1594415;73;812;-68
2023/04/25 01:30:28;;;;;;;;;;;22.40;53.50;;;;;;1590853;73;711;-68
2023/04/25 01:32:37;;;;;;;;;;;22.40;53.40;;;;;;1586774;73;1194;-68
2023/04/25 01:34:34;;;;;;;;;;;22.40;53.50;;;;;;1584188;73;1921;-67
2023/04/25 01:36:36;;;;;;;;;;;22.30;53.60;;;;;;1592563;73;702;-67
2023/04/25 01:38:38;;;;;;;;;;;22.30;53.50;;;;;;1589021;73;731;-67
2023/04/25 01:40:40;;;;;;;;;;;22.30;53.70;;;;;;1583268;73;1346;-67
2023/04/25 01:42:42;;;;;;;;;;;22.30;53.60;;;;;;1586130;73;1162;-68
2023/04/25 01:44:44;;;;;;;;;;;22.30;53.70;;;;;;1588121;73;743;-68
2023/04/25 01:46:46;;;;;;;;;;;22.20;53.60;;;;;;1571411;73;721;-66
2023/04/25 01:48:48;;;;;;;;;;;22.30;53.80;;;;;;1589515;73;739;-65
2023/04/25 01:50:50;;;;;;;;;;;22.20;54.00;;;;;;1583733;72;744;-65
2023/04/25 01:52:52;;;;;;;;;;;22.20;53.90;;;;;;1587999;73;1164;-66
2023/04/25 01:54:53;;;;;;;;;;;22.20;53.80;;;;;;1593233;73;1926;-68
2023/04/25 01:56:56;;;;;;;;;;;22.20;53.90;;;;;;1577786;73;588;-68
2023/04/25 01:58:58;;;;;;;;;;;22.20;53.90;;;;;;1557808;74;1302;-68
2023/04/25 02:01:00;;;;;;;;;;;22.30;53.90;;;;;;1591290;72;725;-68
2023/04/25 02:03:02;;;;;;;;;;;22.40;53.70;;;;;;1582666;73;1118;-69
2023/04/25 02:05:04;;;;;;;;;;;22.40;53.50;;;;;;1571391;73;692;-70
2023/04/25 02:07:06;;;;;;;;;;;22.30;53.50;;;;;;1584757;73;761;-70
2023/04/25 02:09:08;;;;;;;;;;;22.30;53.40;;;;;;1590425;73;1563;-68
2023/04/25 02:11:10;;;;;;;;;;;22.40;53.30;;;;;;1593105;73;724;-68
2023/04/25 02:13:11;;;;;;;;;;;22.30;53.40;;;;;;1573956;73;1088;-67
2023/04/25 02:15:13;;;;;;;;;;;22.30;53.40;;;;;;1580790;73;1933;-71
2023/04/25 02:17:15;;;;;;;;;;;22.30;53.50;;;;;;1575668;73;715;-71
2023/04/25 02:19:17;;;;;;;;;;;22.20;53.50;;;;;;1577725;73;718;-68
2023/04/25 02:21:19;;;;;;;;;;;22.40;53.60;;;;;;1584457;73;720;-69
2023/04/25 02:23:21;;;;;;;;;;;22.30;53.60;;;;;;1582690;73;1538;-67
2023/04/25 02:25:23;;;;;;;;;;;22.30;53.50;;;;;;1574565;73;747;-67
2023/04/25 02:27:25;;;;;;;;;;;22.20;53.40;;;;;;1578156;73;739;-69
2023/04/25 02:29:27;;;;;;;;;;;22.30;53.70;;;;;;1586296;73;693;-67
2023/04/25 02:31:28;;;;;;;;;;;22.30;53.80;;;;;;1580777;73;1143;-66
2023/04/25 02:33:30;;;;;;;;;;;22.20;53.60;;;;;;1576376;73;650;-66
2023/04/25 02:35:32;;;;;;;;;;;22.30;53.60;;;;;;1578623;73;1933;-67
2023/04/25 02:37:34;;;;;;;;;;;22.30;53.60;;;;;;1582014;73;1589;-66
2023/04/25 02:39:36;;;;;;;;;;;22.30;53.60;;;;;;1584595;73;812;-71
2023/04/25 02:41:38;;;;;;;;;;;22.20;53.30;;;;;;1586858;73;1147;-67
2023/04/25 02:43:40;;;;;;;;;;;22.20;53.40;;;;;;1595428;73;636;-67
2023/04/25 02:45:42;;;;;;;;;;;22.30;53.30;;;;;;1578235;73;735;-67
2023/04/25 02:47:44;;;;;;;;;;;22.20;53.20;;;;;;1571650;73;746;-67
2023/04/25 02:49:46;;;;;;;;;;;22.20;53.10;;;;;;1585195;73;777;-66
2023/04/25 02:51:48;;;;;;;;;;;22.20;53.50;;;;;;1584511;73;1536;-68
2023/04/25 02:53:49;;;;;;;;;;;22.20;53.80;;;;;;1576053;73;793;-69
2023/04/25 02:55:52;;;;;;;;;;;22.10;54.00;;;;;;1589589;73;1944;-69
2023/04/25 02:57:55;;;;;;;;;;;22.10;54.00;;;;;;1599830;73;777;-69
2023/04/25 02:59:57;;;;;;;;;;;22.20;53.90;;;;;;1590168;73;702;-69
2023/04/25 03:01:58;;;;;;;;;;;22.10;54.30;;;;;;1579276;73;1068;-66
2023/04/25 03:04:00;;;;;;;;;;;22.10;54.20;;;;;;1572051;73;781;-69
2023/04/25 03:06:02;;;;;;;;;;;22.10;54.10;;;;;;1576460;73;1496;-67
2023/04/25 03:08:04;;;;;;;;;;;22.10;53.90;;;;;;1599824;73;824;-72
2023/04/25 03:10:07;;;;;;;;;;;22.20;53.90;;;;;;1590938;73;770;-68
2023/04/25 03:12:09;;;;;;;;;;;22.20;53.90;;;;;;1575636;73;1143;-68
2023/04/25 03:14:11;;;;;;;;;;;22.20;54.20;;;;;;1591224;73;713;-68
2023/04/25 03:16:13;;;;;;;;;;;22.10;54.10;;;;;;1575900;73;1928;-68
2023/04/25 03:18:14;;;;;;;;;;;22.10;54.20;;;;;;1603276;73;756;-69
2023/04/25 03:20:16;;;;;;;;;;;22.20;54.20;;;;;;1592688;73;1593;-68
2023/04/25 03:22:18;;;;;;;;;;;22.20;54.20;;;;;;1588808;73;1135;-69
2023/04/25 03:24:20;;;;;;;;;;;22.20;54.00;;;;;;1594186;73;808;-69
2023/04/25 03:26:22;;;;;;;;;;;22.10;53.90;;;;;;1577343;73;813;-68
2023/04/25 03:28:24;;;;;;;;;;;22.20;54.00;;;;;;1598558;73;776;-68
2023/04/25 03:30:26;;;;;;;;;;;22.10;54.00;;;;;;1589446;73;714;-68
2023/04/25 03:32:27;;;;;;;;;;;22.10;54.00;;;;;;1578507;73;1131;-68
2023/04/25 03:34:29;;;;;;;;;;;22.10;53.90;;;;;;1586907;73;1691;-68
2023/04/25 03:36:32;;;;;;;;;;;22.10;53.90;;;;;;1591485;73;1923;-67
2023/04/25 03:38:34;;;;;;;;;;;22.10;54.30;;;;;;1584436;73;768;-68
2023/04/25 03:40:36;;;;;;;;;;;22.10;54.30;;;;;;1582758;73;682;-67
2023/04/25 03:42:38;;;;;;;;;;;22.00;54.10;;;;;;1581181;73;1139;-67
2023/04/25 03:44:40;;;;;;;;;;;22.00;54.20;;;;;;1586560;73;727;-65
2023/04/25 03:46:42;;;;;;;;;;;22.10;54.30;;;;;;1566941;73;1455;-64
2023/04/25 03:48:44;;;;;;;;;;;22.10;54.30;;;;;;1585400;73;722;-67
2023/04/25 03:50:45;;;;;;;;;;;22.10;54.40;;;;;;1591882;73;760;-66
2023/04/25 03:52:47;;;;;;;;;;;22.10;54.10;;;;;;1582458;73;1165;-67
2023/04/25 03:54:49;;;;;;;;;;;22.10;54.10;;;;;;1593722;73;728;-67
2023/04/25 03:56:51;;;;;;;;;;;22.20;54.00;;;;;;1579561;73;1941;-67
2023/04/25 03:58:53;;;;;;;;;;;22.10;53.90;;;;;;1583742;73;728;-68
2023/04/25 04:00:55;;;;;;;;;;;22.10;54.10;;;;;;1583161;73;1551;-66
2023/04/25 04:02:57;;;;;;;;;;;22.20;53.70;;;;;;1584041;73;1104;-66
2023/04/25 04:04:59;;;;;;;;;;;22.20;53.60;;;;;;1575234;73;711;-67
2023/04/25 04:07:01;;;;;;;;;;;22.20;53.50;;;;;;1590482;73;719;-67
2023/04/25 04:09:03;;;;;;;;;;;22.30;53.40;;;;;;1583729;73;753;-66
2023/04/25 04:11:05;;;;;;;;;;;22.30;53.20;;;;;;1585276;73;718;-67
2023/04/25 04:13:07;;;;;;;;;;;22.40;53.20;;;;;;1568622;73;1127;-67
2023/04/25 04:15:08;;;;;;;;;;;22.40;53.40;;;;;;1578804;73;1468;-67
2023/04/25 04:17:10;;;;;;;;;;;22.30;53.20;;;;;;1583302;73;1929;-69
2023/04/25 04:19:12;;;;;;;;;;;22.30;53.20;;;;;;1591257;73;743;-66
2023/04/25 04:21:14;;;;;;;;;;;22.30;53.10;;;;;;1581897;74;719;-67
2023/04/25 04:23:16;;;;;;;;;;;22.40;53.10;;;;;;1581746;73;1131;-66
2023/04/25 04:25:19;;;;;;;;;;;22.40;53.00;;;;;;1576474;73;718;-66
2023/04/25 04:27:21;;;;;;;;;;;22.40;53.00;;;;;;1578562;73;708;-66
2023/04/25 04:29:23;;;;;;;;;;;22.40;53.00;;;;;;1575182;73;730;-67
2023/04/25 04:31:25;;;;;;;;;;;22.40;53.10;;;;;;1589044;73;1136;-68
2023/04/25 04:33:28;;;;;;;;;;;22.30;53.10;;;;;;1580763;73;761;-68
2023/04/25 04:35:30;;;;;;;;;;;22.40;53.00;;;;;;1585386;73;700;-66
2023/04/25 04:37:32;;;;;;;;;;;22.40;53.10;;;;;;1592482;73;1926;-66
2023/04/25 04:39:34;;;;;;;;;;;22.30;53.30;;;;;;1589781;73;714;-66
2023/04/25 04:41:36;;;;;;;;;;;22.30;53.40;;;;;;1590383;73;1167;-65
2023/04/25 04:43:39;;;;;;;;;;;22.30;53.70;;;;;;1584879;73;731;-65
2023/04/25 04:45:41;;;;;;;;;;;22.30;53.60;;;;;;1579637;73;728;-67
2023/04/25 04:47:43;;;;;;;;;;;22.30;53.60;;;;;;1588964;73;711;-67
2023/04/25 04:49:44;;;;;;;;;;;22.20;53.50;;;;;;1576927;73;726;-66
2023/04/25 04:51:47;;;;;;;;;;;22.20;54.60;;;;;;1583075;73;1204;-66
2023/04/25 04:53:49;;;;;;;;;;;22.20;53.80;;;;;;1582411;73;697;-65
2023/04/25 04:55:51;;;;;;;;;;;22.20;54.10;;;;;;1570546;73;1929;-68
2023/04/25 04:57:53;;;;;;;;;;;22.20;54.20;;;;;;1588219;73;650;-66
2023/04/25 04:59:54;;;;;;;;;;;22.20;54.30;;;;;;1578440;73;718;-64
2023/04/25 05:01:56;;;;;;;;;;;22.10;54.20;;;;;;1592412;73;1148;-66
2023/04/25 05:04:03;;;;;;;;;;;22.20;54.20;;;;;;1580022;73;718;-66
2023/04/25 05:06:05;;;;;;;;;;;22.20;54.20;;;;;;1583387;73;646;-66
2023/04/25 05:08:07;;;;;;;;;;;22.20;54.10;;;;;;1581541;73;738;-65
2023/04/25 05:10:09;;;;;;;;;;;22.20;53.90;;;;;;1580335;73;729;-67
2023/04/25 05:12:10;;;;;;;;;;;22.20;54.00;;;;;;1586039;73;1117;-65
2023/04/25 05:14:12;;;;;;;;;;;22.20;53.80;;;;;;1591658;73;717;-67
2023/04/25 05:16:14;;;;;;;;;;;22.20;53.60;;;;;;1583681;73;1943;-65
2023/04/25 05:18:16;;;;;;;;;;;22.20;53.60;;;;;;1574330;73;792;-64
2023/04/25 05:20:21;;;;;;;;;;;22.20;53.50;;;;;;1578071;73;738;-65
2023/04/25 05:22:23;;;;;;;;;;;22.20;53.40;;;;;;1571605;73;1095;-65
2023/04/25 05:24:25;;;;;;;;;;;22.20;53.50;;;;;;1588297;73;714;-64
2023/04/25 05:26:30;;;;;;;;;;;22.20;53.60;;;;;;1580694;73;1452;-64
2023/04/25 05:28:30;;;;;;;;;;;22.20;54.00;;;;;;1574222;73;1589;-64
2023/04/25 05:30:32;;;;;;;;;;;22.10;53.80;;;;;;1577749;73;725;-64
2023/04/25 05:32:34;;;;;;;;;;;22.10;54.00;;;;;;1583321;73;1147;-64
2023/04/25 05:34:36;;;;;;;;;;;22.10;53.90;;;;;;1583233;73;638;-66
2023/04/25 05:36:38;;;;;;;;;;;22.10;54.00;;;;;;1593078;73;1924;-66
2023/04/25 05:38:40;;;;;;;;;;;22.10;54.20;;;;;;1579386;73;699;-69
2023/04/25 05:40:42;;;;;;;;;;;22.10;54.40;;;;;;1585183;73;742;-72
2023/04/25 05:42:44;;;;;;;;;;;22.10;54.40;;;;;;1579383;73;1132;-66
2023/04/25 05:44:46;;;;;;;;;;;22.10;54.30;;;;;;1581346;73;728;-66
2023/04/25 05:46:48;;;;;;;;;;;22.00;54.00;;;;;;1572025;73;710;-65
2023/04/25 05:48:50;;;;;;;;;;;22.10;54.00;;;;;;1581280;73;850;-66
2023/04/25 05:50:51;;;;;;;;;;;22.00;53.90;;;;;;1578110;73;973;-67
2023/04/25 05:52:53;;;;;;;;;;;22.00;54.10;;;;;;1591822;72;1172;-65
2023/04/25 05:54:55;;;;;;;;;;;22.10;54.10;;;;;;1590768;73;709;-68
2023/04/25 05:59:08;;;;;;;;;;;22.00;54.00;;;;;;1573998;70;225173;-71
2023/04/25 06:01:10;;;;;;;;;;;22.00;53.90;;;;;;1562346;74;695;-70
2023/04/25 06:03:14;;;;;;;;;;;22.00;53.90;;;;;;1570607;74;1112;-68
2023/04/25 06:05:15;;;;;;;;;;;22.00;54.10;;;;;;1570404;74;1670;-69
2023/04/25 06:07:17;;;;;;;;;;;22.00;54.10;;;;;;1568200;74;733;-72
2023/04/25 06:09:19;;;;;;;;;;;22.00;54.00;;;;;;1571001;73;1148;-69
2023/04/25 06:11:21;;;;;;;;;;;22.00;53.90;;;;;;1568766;74;766;-72
2023/04/25 06:13:23;;;;;;;;;;;22.00;53.80;;;;;;1569759;74;671;-69
2023/04/25 06:15:24;;;;;;;;;;;22.00;53.90;;;;;;1569510;74;906;-70
2023/04/25 06:17:26;;;;;;;;;;;22.00;53.80;;;;;;1568880;74;1932;-70
2023/04/25 06:19:28;;;;;;;;;;;22.10;54.00;;;;;;1563969;74;684;-70
2023/04/25 06:21:31;;;;;;;;;;;22.10;53.70;;;;;;1568295;74;1550;-70
2023/04/25 06:23:33;;;;;;;;;;;22.20;53.60;;;;;;1558381;74;708;-71
2023/04/25 06:25:35;;;;;;;;;;;22.10;54.00;;;;;;1565686;74;796;-71
2023/04/25 06:27:37;;;;;;;;;;;22.10;54.10;;;;;;1558842;74;1126;-68
2023/04/25 06:29:39;;;;;;;;;;;22.10;53.90;;;;;;1563330;74;768;-69
2023/04/25 06:31:41;;;;;;;;;;;22.20;53.90;;;;;;1564800;75;758;-69
2023/04/25 06:33:42;;;;;;;;;;;22.20;53.70;;;;;;1571488;74;823;-69
2023/04/25 06:35:45;;;;;;;;;;;22.20;53.60;;;;;;1577686;74;814;-70
2023/04/25 06:37:47;;;;;;;;;;;22.20;53.50;;;;;;1562446;74;1916;-68
2023/04/25 06:39:49;;;;;;;;;;;22.20;53.40;;;;;;1576271;74;710;-68
2023/04/25 06:41:51;;;;;;;;;;;22.20;53.80;;;;;;1564320;74;709;-73
2023/04/25 06:43:52;;;;;;;;;;;22.10;54.20;;;;;;1562915;74;677;-71
2023/04/25 06:45:54;;;;;;;;;;;22.10;54.00;;;;;;1565911;74;758;-69
2023/04/25 06:47:56;;;;;;;;;;;22.20;53.90;;;;;;1569020;74;1139;-70
2023/04/25 06:49:58;;;;;;;;;;;22.20;53.80;;;;;;1568573;74;768;-73
2023/04/25 06:52:00;;;;;;;;;;;22.10;53.50;;;;;;1568570;74;1053;-76
2023/04/25 06:54:03;;;;;;;;;;;22.20;53.60;;;;;;1571731;74;1497;-68
2023/04/25 06:56:05;;;;;;;;;;;22.20;52.90;;;;;;1571860;74;1418;-72
2023/04/25 06:58:07;;;;;;;;;;;22.30;52.70;;;;;;1560197;74;1941;-71
2023/04/25 07:00:10;;;;;;;;;;;22.40;53.30;;;;;;1564979;74;1525;-72
2023/04/25 07:02:12;;;;;;;;;;;22.50;53.20;;;;;;1561780;74;1509;-71
2023/04/25 07:04:14;;;;;;;;;;;22.60;52.80;;;;;;1568378;74;1310;-73
2023/04/25 07:06:16;;;;;;;;;;;22.60;52.60;;;;;;1572825;74;1494;-71
2023/04/25 07:08:18;;;;;;;;;;;22.80;52.30;;;;;;1564364;74;1566;-70
2023/04/25 07:10:21;;;;;;;;;;;22.90;52.10;;;;;;1569246;74;1485;-71
2023/04/25 07:12:23;;;;;;;;;;;23.00;52.00;;;;;;1567416;74;1472;-72
2023/04/25 07:14:25;;;;;;;;;;;23.10;51.80;;;;;;1572163;74;1500;-71
2023/04/25 07:16:27;;;;;;;;;;;23.10;51.50;;;;;;1563415;74;1284;-73
2023/04/25 07:18:28;;;;;;;;;;;23.10;51.40;;;;;;1575583;73;1982;-71
2023/04/25 07:20:30;;;;;;;;;;;23.20;51.20;;;;;;1570449;74;1368;-71
2023/04/25 07:22:32;;;;;;;;;;;23.20;50.90;;;;;;1565863;74;1585;-71
2023/04/25 07:24:34;;;;;;;;;;;23.20;50.50;;;;;;1567968;74;1378;-70
2023/04/25 07:26:37;;;;;;;;;;;23.20;50.50;;;;;;1568960;74;1406;-71
2023/04/25 07:28:39;;;;;;;;;;;23.10;50.40;;;;;;1561193;74;1519;-71
2023/04/25 07:30:41;;;;;;;;;;;23.10;50.40;;;;;;1566629;74;1097;-72
2023/04/25 07:32:43;;;;;;;;;;;23.10;50.40;;;;;;1573775;74;1033;-71
2023/04/25 07:34:44;;;;;;;;;;;23.10;50.60;;;;;;1573037;74;1532;-71
2023/04/25 07:36:46;;;;;;;;;;;23.10;50.70;;;;;;1571427;74;1566;-72
2023/04/25 07:38:48;;;;;;;;;;;23.30;50.50;;;;;;1561575;74;1658;-73
2023/04/25 07:40:50;;;;;;;;;;;23.20;50.40;;;;;;1563599;74;1525;-71
2023/04/25 07:42:52;;;;;;;;;;;23.20;50.20;;;;;;1572307;74;1541;-71
2023/04/25 07:44:54;;;;;;;;;;;23.20;50.10;;;;;;1565689;74;1403;-71
2023/04/25 07:46:56;;;;;;;;;;;23.20;50.20;;;;;;1570609;74;1577;-70
2023/04/25 07:48:58;;;;;;;;;;;23.30;50.40;;;;;;1564559;74;1360;-71
2023/04/25 07:50:59;;;;;;;;;;;23.20;50.00;;;;;;1561547;74;1563;-71
2023/04/25 07:53:01;;;;;;;;;;;23.30;50.10;;;;;;1565578;74;1429;-71
2023/04/25 07:55:03;;;;;;;;;;;23.30;50.00;;;;;;1569880;74;1714;-71
2023/04/25 07:57:09;;;;;;;;;;;23.20;49.80;;;;;;1563578;74;1949;-72
2023/04/25 07:59:09;;;;;;;;;;;23.20;50.00;;;;;;1563219;74;1561;-71
2023/04/25 08:01:11;;;;;;;;;;;23.30;50.00;;;;;;1571135;74;1493;-71
2023/04/25 08:03:12;;;;;;;;;;;23.20;49.90;;;;;;1564172;74;1139;-71
2023/04/25 08:05:15;;;;;;;;;;;23.20;49.80;;;;;;1574802;74;1871;-71
2023/04/25 08:07:17;;;;;;;;;;;23.20;49.90;;;;;;1567181;74;1500;-73
2023/04/25 08:09:19;;;;;;;;;;;23.20;49.90;;;;;;1564247;74;1293;-71
2023/04/25 08:11:21;;;;;;;;;;;23.20;50.00;;;;;;1571988;74;1510;-71
2023/04/25 08:13:23;;;;;;;;;;;23.30;49.70;;;;;;1573510;74;1533;-71
2023/04/25 08:15:25;;;;;;;;;;;23.20;49.60;;;;;;1567336;74;1331;-72
2023/04/25 08:17:27;;;;;;;;;;;23.20;49.60;;;;;;1561451;74;1915;-72
2023/04/25 08:19:29;;;;;;;;;;;23.10;49.70;;;;;;1558002;74;1532;-73
2023/04/25 08:21:31;;;;;;;;;;;23.10;49.70;;;;;;1562498;74;1374;-72
2023/04/25 08:23:33;;;;;;;;;;;23.20;49.90;;;;;;1568240;74;1490;-74
2023/04/25 08:25:35;;;;;;;;;;;23.20;49.90;;;;;;1567539;74;1506;-72
2023/04/25 08:27:37;;;;;;;;;;;23.20;49.70;;;;;;1554183;74;1532;-71
2023/04/25 08:29:38;;;;;;;;;;;23.20;49.60;;;;;;1577193;74;1459;-71
2023/04/25 08:31:40;;;;;;;;;;;23.10;49.70;;;;;;1571013;74;1400;-71
2023/04/25 08:33:42;;;;;;;;;;;23.10;49.60;;;;;;1571776;74;1471;-71
2023/04/25 08:35:45;;;;;;;;;;;23.10;49.70;;;;;;1555954;74;1270;-72
2023/04/25 08:37:48;;;;;;;;;;;23.10;49.70;;;;;;1568812;74;1936;-71
2023/04/25 08:39:52;;;;;;;;;;;23.10;49.70;;;;;;1562341;74;1648;-71
2023/04/25 08:41:53;;;;;;;;;;;23.00;49.70;;;;;;1569459;74;1563;-72
2023/04/25 08:43:55;;;;;;;;;;;23.00;49.60;;;;;;1561826;74;1525;-71
2023/04/25 08:46:00;;;;;;;;;;;23.00;49.60;;;;;;1558448;74;1499;-71
2023/04/25 08:48:02;;;;;;;;;;;23.00;49.80;;;;;;1569472;74;1551;-70
2023/04/25 08:50:05;;;;;;;;;;;23.10;50.20;;;;;;1571556;74;1471;-71
2023/04/25 08:52:07;;;;;;;;;;;23.00;50.10;;;;;;1568590;74;1511;-71
2023/04/25 08:54:14;;;;;;;;;;;23.10;50.20;;;;;;1562663;74;1522;-71
2023/04/25 08:56:13;;;;;;;;;;;23.20;50.20;;;;;;1570260;75;1556;-73
2023/04/25 08:58:15;;;;;;;;;;;23.20;50.10;;;;;;1569191;74;1946;-71
2023/04/25 09:00:17;;;;;;;;;;;23.20;50.00;;;;;;1562756;74;1559;-70
2023/04/25 09:02:20;;;;;;;;;;;23.30;49.80;;;;;;1573108;74;1488;-71
2023/04/25 09:04:22;;;;;;;;;;;23.20;49.60;;;;;;1572431;74;1469;-71
2023/04/25 09:06:24;;;;;;;;;;;23.20;49.70;;;;;;1558301;74;1536;-72
2023/04/25 09:08:26;;;;;;;;;;;23.20;49.70;;;;;;1566195;74;1487;-72
2023/04/25 09:10:28;;;;;;;;;;;23.20;49.70;;;;;;1562209;74;1501;-70
2023/04/25 09:12:30;;;;;;;;;;;23.10;49.60;;;;;;1572173;74;1530;-71
2023/04/25 09:14:32;;;;;;;;;;;23.10;49.50;;;;;;1559790;74;1503;-70
2023/04/25 09:16:35;;;;;;;;;;;23.20;49.70;;;;;;1567400;74;1460;-71
2023/04/25 09:18:36;;;;;;;;;;;23.20;49.70;;;;;;1564978;74;1938;-71
2023/04/25 09:20:42;;;;;;;;;;;23.20;49.80;;;;;;1567761;74;1388;-71
2023/04/25 09:22:44;;;;;;;;;;;23.20;49.70;;;;;;1566045;74;1406;-71
2023/04/25 09:24:48;;;;;;;;;;;23.20;49.50;;;;;;1535257;76;1352;-70
2023/04/25 09:26:50;;;;;;;;;;;23.20;49.50;;;;;;1564920;74;2056;-71
2023/04/25 09:28:53;;;;;;;;;;;23.20;49.50;;;;;;1566556;74;1492;-71
2023/04/25 09:30:57;;;;;;;;;;;23.10;49.50;;;;;;1567257;74;1563;-70
2023/04/25 09:33:00;;;;;;;;;;;23.10;49.60;;;;;;1557732;74;1463;-70
2023/04/25 09:35:03;;;;;;;;;;;23.00;49.60;;;;;;1562736;74;1832;-72
2023/04/25 09:37:04;;;;;;;;;;;23.00;49.70;;;;;;1572092;74;1317;-72
2023/04/25 09:39:07;;;;;;;;;;;23.00;49.70;;;;;;1561144;74;1954;-71
2023/04/25 09:41:10;;;;;;;;;;;22.90;49.70;;;;;;1532985;76;1742;-71
2023/04/25 09:43:13;;;;;;;;;;;22.90;49.80;;;;;;1565800;74;1508;-71
2023/04/25 09:45:15;;;;;;;;;;;22.80;49.70;;;;;;1560525;74;1818;-70
2023/04/25 09:47:17;;;;;;;;;;;22.80;49.80;;;;;;1563264;74;1541;-73
2023/04/25 09:49:20;;;;;;;;;;;22.80;50.00;;;;;;1569899;74;1612;-71
2023/04/25 09:51:22;;;;;;;;;;;22.70;50.00;;;;;;1563973;74;1505;-71
2023/04/25 09:53:24;;;;;;;;;;;22.70;50.10;;;;;;1561799;74;1595;-71
2023/04/25 09:55:26;;;;;;;;;;;22.70;50.20;;;;;;1562339;74;1518;-71
2023/04/25 09:57:27;;;;;;;;;;;22.70;50.20;;;;;;1573034;74;1396;-71
2023/04/25 09:59:29;;;;;;;;;;;22.70;50.30;;;;;;1559177;74;1955;-72
2023/04/25 10:01:31;;;;;;;;;;;22.60;50.30;;;;;;1571299;74;1523;-70
2023/04/25 10:03:34;;;;;;;;;;;22.60;50.40;;;;;;1565438;74;1484;-72
2023/04/25 10:05:37;;;;;;;;;;;22.60;50.50;;;;;;1572651;74;1410;-71
2023/04/25 10:07:39;;;;;;;;;;;22.60;50.50;;;;;;1563031;74;1538;-71
2023/04/25 10:09:41;;;;;;;;;;;22.60;50.60;;;;;;1558339;74;1460;-71
2023/04/25 10:11:43;;;;;;;;;;;22.50;50.70;;;;;;1574676;73;1596;-70
2023/04/25 10:13:45;;;;;;;;;;;22.50;50.70;;;;;;1557009;74;1096;-71
2023/04/25 10:15:47;;;;;;;;;;;22.50;50.80;;;;;;1561707;74;1636;-70
2023/04/25 10:17:50;;;;;;;;;;;22.50;50.80;;;;;;1563773;74;1938;-72
2023/04/25 10:19:51;;;;;;;;;;;22.50;50.80;;;;;;1561486;74;1491;-71
2023/04/25 10:21:55;;;;;;;;;;;22.50;50.90;;;;;;1555342;74;1582;-71
2023/04/25 10:23:57;;;;;;;;;;;22.50;50.90;;;;;;1566438;74;1303;-71
2023/04/25 10:25:58;;;;;;;;;;;22.50;51.00;;;;;;1570738;74;1504;-71
2023/04/25 10:28:02;;;;;;;;;;;22.50;50.90;;;;;;1567249;74;1540;-71
2023/04/25 10:30:14;;;;;;;;;;;22.40;50.80;;;;;;1564246;74;1517;-71
2023/04/25 10:32:15;;;;;;;;;;;22.40;50.80;;;;;;1558375;74;1456;-71
2023/04/25 10:34:18;;;;;;;;;;;22.50;51.00;;;;;;1571226;74;1550;-71
2023/04/25 10:36:24;;;;;;;;;;;22.40;50.90;;;;;;1566804;74;1580;-70
2023/04/25 10:38:23;;;;;;;;;;;22.40;50.90;;;;;;1569447;74;1934;-71
2023/04/25 10:40:25;;;;;;;;;;;22.40;50.90;;;;;;1575672;74;1530;-71
2023/04/25 10:42:27;;;;;;;;;;;22.30;51.00;;;;;;1565474;74;1402;-71
2023/04/25 10:44:30;;;;;;;;;;;22.40;51.00;;;;;;1532363;76;1563;-70
2023/04/25 10:46:31;;;;;;;;;;;22.30;51.00;;;;;;1560465;74;1483;-70
2023/04/25 10:48:33;;;;;;;;;;;22.30;51.10;;;;;;1539962;76;1489;-71
2023/04/25 10:50:39;;;;;;;;;;;22.40;51.10;;;;;;1521507;76;1290;-71
2023/04/25 10:52:41;;;;;;;;;;;22.30;51.10;;;;;;1557727;74;1564;-73
2023/04/25 10:54:43;;;;;;;;;;;22.30;51.20;;;;;;1562773;74;1427;-71
2023/04/25 10:56:45;;;;;;;;;;;22.40;51.10;;;;;;1570418;74;1506;-70
2023/04/25 10:58:47;;;;;;;;;;;22.30;51.20;;;;;;1558116;74;1958;-71
2023/04/25 11:00:50;;;;;;;;;;;22.30;51.20;;;;;;1567764;74;1143;-71
2023/04/25 11:02:52;;;;;;;;;;;22.20;51.10;;;;;;1567597;74;1562;-72
2023/04/25 11:04:55;;;;;;;;;;;22.30;51.30;;;;;;1573883;74;1494;-71
2023/04/25 11:07:09;;;;;;;;;;;22.20;51.20;;;;;;1555438;74;1508;-71
2023/04/25 11:09:13;;;;;;;;;;;22.20;51.20;;;;;;1564092;74;1360;-72
2023/04/25 11:11:15;;;;;;;;;;;22.20;51.30;;;;;;1560251;74;1546;-71
2023/04/25 11:13:18;;;;;;;;;;;22.20;51.30;;;;;;1571523;74;1496;-71
2023/04/25 11:15:20;;;;;;;;;;;22.20;51.40;;;;;;1567836;75;1501;-74
2023/04/25 11:17:22;;;;;;;;;;;22.20;51.40;;;;;;1557158;74;1318;-71
2023/04/25 11:19:24;;;;;;;;;;;22.20;51.40;;;;;;1536965;75;1948;-71
2023/04/25 11:21:31;;;;;;;;;;;22.10;51.40;;;;;;1569580;74;1439;-71
2023/04/25 11:23:32;;;;;;;;;;;22.20;51.40;;;;;;1567738;74;1641;-70
2023/04/25 11:25:34;;;;;;;;;;;22.10;51.50;;;;;;1566293;74;1351;-73
2023/04/25 11:27:40;;;;;;;;;;;22.10;51.50;;;;;;1567897;74;1445;-71
2023/04/25 11:29:42;;;;;;;;;;;22.20;51.50;;;;;;1578290;74;1429;-71
2023/04/25 11:31:45;;;;;;;;;;;22.10;51.50;;;;;;1560448;74;1352;-73
2023/04/25 11:33:47;;;;;;;;;;;22.10;51.50;;;;;;1567352;74;1445;-72
2023/04/25 11:35:49;;;;;;;;;;;22.20;51.50;;;;;;1565480;74;1498;-71
2023/04/25 11:37:51;;;;;;;;;;;22.10;51.50;;;;;;1559793;74;1424;-72
2023/04/25 11:39:53;;;;;;;;;;;22.10;51.50;;;;;;1569234;74;1928;-71
2023/04/25 11:41:55;;;;;;;;;;;22.20;51.50;;;;;;1567749;74;1704;-72
2023/04/25 11:43:56;;;;;;;;;;;22.10;51.50;;;;;;1569205;74;1297;-74
2023/04/25 11:45:58;;;;;;;;;;;22.10;51.60;;;;;;1569335;74;1258;-72
2023/04/25 11:48:02;;;;;;;;;;;22.10;51.50;;;;;;1562951;74;1515;-71
2023/04/25 11:50:04;;;;;;;;;;;22.10;51.50;;;;;;1571353;74;1476;-71
2023/04/25 11:52:07;;;;;;;;;;;22.20;51.50;;;;;;1561204;74;1448;-71
2023/04/25 11:54:09;;;;;;;;;;;22.10;51.50;;;;;;1568603;74;1286;-71
2023/04/25 11:56:11;;;;;;;;;;;22.10;51.50;;;;;;1559138;74;1413;-71
2023/04/25 11:58:13;;;;;;;;;;;22.10;51.50;;;;;;1560708;74;1501;-72
2023/04/25 12:00:16;;;;;;;;;;;22.10;51.50;;;;;;1561582;74;1898;-72
2023/04/25 12:02:25;;;;;;;;;;;22.10;51.50;;;;;;1564274;74;1503;-71
2023/04/25 12:04:27;;;;;;;;;;;22.10;51.50;;;;;;1568986;74;1559;-72
2023/04/25 12:06:29;;;;;;;;;;;22.10;51.60;;;;;;1533179;75;1587;-72